Time;durP1;ratioP1;P1;durP2;ratioP2;P2;SDS_P1;SDS_P2;PMS_P1;PMS_P2;Temp;Humidity;BMP_temperature;BMP_pressure;BME280_temperature;BME280_humidity;BME280_pressure;Samples;Min_cycle;Max_cycle;Signal;HPM_P1;HPM_P2
2022/06/07 00:02:06;;;;;;;3.97;3.45;;;13.80;99.90;;;;;;4970013;28;20181;-73
2022/06/07 00:04:32;;;;;;;4.90;2.83;;;13.90;99.90;;;;;;4969951;28;20299;-73
2022/06/07 00:06:58;;;;;;;5.63;3.22;;;14.10;99.90;;;;;;4970876;28;20193;-73
2022/06/07 00:09:23;;;;;;;3.97;2.80;;;14.10;99.90;;;;;;4969944;28;20192;-73
2022/06/07 00:11:49;;;;;;;3.83;3.05;;;14.10;99.90;;;;;;4971728;28;20177;-73
2022/06/07 00:14:15;;;;;;;4.97;3.08;;;14.20;99.90;;;;;;4971101;28;20707;-73
2022/06/07 00:16:40;;;;;;;4.25;2.88;;;14.30;99.90;;;;;;4969903;28;20227;-73
2022/06/07 00:19:06;;;;;;;3.55;3.08;;;14.30;99.90;;;;;;4970094;28;20201;-73
2022/06/07 00:21:32;;;;;;;3.28;2.75;;;14.40;99.90;;;;;;4971110;28;20177;-73
2022/06/07 00:24:00;;;;;;;3.40;2.83;;;14.40;99.90;;;;;;4970038;28;20200;-73
2022/06/07 00:26:27;;;;;;;4.22;3.00;;;14.50;99.90;;;;;;4970325;28;20181;-73
2022/06/07 00:28:52;;;;;;;3.58;3.28;;;14.50;99.90;;;;;;4970081;28;20173;-73
2022/06/07 00:31:18;;;;;;;4.13;3.03;;;14.60;99.90;;;;;;4972498;28;20184;-73
2022/06/07 00:33:44;;;;;;;6.25;3.20;;;14.60;99.90;;;;;;4974688;28;20201;-73
2022/06/07 00:36:10;;;;;;;5.82;2.92;;;14.70;99.90;;;;;;4972977;28;20190;-73
2022/06/07 00:38:35;;;;;;;7.38;3.30;;;14.60;99.90;;;;;;4974457;28;20185;-73
2022/06/07 00:41:03;;;;;;;4.47;2.80;;;14.60;99.90;;;;;;4972971;28;20185;-73
2022/06/07 00:43:29;;;;;;;3.42;3.22;;;14.40;99.90;;;;;;4973593;28;20234;-73
2022/06/07 00:45:56;;;;;;;8.32;3.22;;;14.30;99.90;;;;;;4973332;28;20222;-73
2022/06/07 00:48:22;;;;;;;3.92;3.58;;;14.30;99.90;;;;;;4972787;28;20178;-73
2022/06/07 00:50:54;;;;;;;3.55;3.00;;;14.30;99.90;;;;;;4972769;28;20173;-73
2022/06/07 00:53:25;;;;;;;4.30;3.17;;;14.40;99.90;;;;;;4973082;28;20177;-72
2022/06/07 00:55:51;;;;;;;5.07;3.88;;;14.40;99.90;;;;;;4972784;28;20201;-72
2022/06/07 00:58:18;;;;;;;6.55;4.20;;;14.40;99.90;;;;;;4972692;28;20275;-72
2022/06/07 01:00:44;;;;;;;4.22;3.80;;;14.40;99.90;;;;;;4974408;28;20208;-72
2022/06/07 01:03:09;;;;;;;3.72;3.40;;;14.40;99.90;;;;;;4972623;28;20644;-72
2022/06/07 01:05:35;;;;;;;5.93;3.78;;;14.50;99.90;;;;;;4972723;28;20212;-73
2022/06/07 01:10:51;;;;;;;9.52;3.00;;;14.50;99.90;;;;;;4974060;28;20184;-73
2022/06/07 01:13:21;;;;;;;6.80;3.20;;;14.60;99.90;;;;;;4972404;28;20527;-73
2022/06/07 01:15:46;;;;;;;7.47;3.45;;;14.60;99.90;;;;;;4972433;28;20270;-73
2022/06/07 01:18:13;;;;;;;4.47;3.00;;;14.60;99.90;;;;;;4972232;28;20221;-73
2022/06/07 01:20:40;;;;;;;3.53;3.08;;;14.60;99.90;;;;;;4973161;28;20180;-73
2022/06/07 01:23:07;;;;;;;4.20;2.97;;;14.50;99.90;;;;;;4972255;28;20192;-73
2022/06/07 01:25:33;;;;;;;3.50;3.10;;;14.60;99.90;;;;;;4972876;28;20537;-73
2022/06/07 01:27:58;;;;;;;8.05;2.97;;;14.60;99.90;;;;;;4972122;28;20183;-73
2022/06/07 01:30:25;;;;;;;5.38;3.38;;;14.50;99.90;;;;;;4972254;28;20177;-73
2022/06/07 01:32:51;;;;;;;6.65;3.13;;;14.50;99.90;;;;;;4972178;28;20234;-73
2022/06/07 01:35:17;;;;;;;8.48;3.50;;;14.60;99.90;;;;;;4972025;28;20270;-73
2022/06/07 01:37:43;;;;;;;3.95;3.03;;;14.60;99.90;;;;;;4972368;28;20180;-73
2022/06/07 01:42:53;;;;;;;3.70;3.20;;;14.70;99.90;;;;;;4973208;28;20171;-73
2022/06/07 01:45:19;;;;;;;4.05;3.63;;;14.70;99.90;;;;;;4972955;28;20299;-73
2022/06/07 01:47:44;;;;;;;6.95;3.33;;;14.70;99.90;;;;;;4971847;28;20180;-73
2022/06/07 01:50:10;;;;;;;4.60;2.90;;;14.70;99.90;;;;;;4971895;28;20184;-73
2022/06/07 01:52:36;;;;;;;3.60;3.13;;;14.70;99.90;;;;;;4971886;28;20192;-73
2022/06/07 01:55:03;;;;;;;3.50;2.95;;;14.60;99.90;;;;;;4971725;28;20203;-73
2022/06/07 01:57:30;;;;;;;3.95;3.00;;;14.60;99.90;;;;;;4971686;28;20184;-73
2022/06/07 01:59:56;;;;;;;3.63;2.80;;;14.60;99.90;;;;;;4972884;28;20192;-73
2022/06/07 02:02:24;;;;;;;4.88;2.97;;;14.50;99.90;;;;;;4971730;28;20260;-73
2022/06/07 02:04:50;;;;;;;6.57;3.20;;;14.40;99.90;;;;;;4972670;28;20212;-73
2022/06/07 02:07:18;;;;;;;4.22;2.80;;;14.40;99.90;;;;;;4972416;28;20185;-73
2022/06/07 02:09:44;;;;;;;3.95;3.55;;;14.40;99.90;;;;;;4971611;28;20177;-73
2022/06/07 02:12:10;;;;;;;3.97;3.10;;;14.40;99.90;;;;;;4971597;28;20251;-73
2022/06/07 02:14:36;;;;;;;5.75;3.40;;;14.30;99.90;;;;;;4971436;28;20208;-73
2022/06/07 02:17:03;;;;;;;3.40;3.10;;;14.30;99.90;;;;;;4971431;28;20189;-73
2022/06/07 02:19:28;;;;;;;3.40;3.05;;;14.30;99.90;;;;;;4971398;28;20204;-73
2022/06/07 02:21:54;;;;;;;5.95;3.20;;;14.30;99.90;;;;;;4971416;28;20181;-73
2022/06/07 02:24:19;;;;;;;3.55;2.95;;;14.20;99.90;;;;;;4971503;28;20201;-73
2022/06/07 02:26:53;;;;;;;7.75;3.20;;;14.30;99.90;;;;;;4972783;28;20216;-73
2022/06/07 02:29:25;;;;;;;5.28;2.90;;;14.30;99.90;;;;;;4971274;28;20212;-73
2022/06/07 02:32:00;;;;;;;4.25;3.15;;;14.40;99.90;;;;;;4972493;28;20244;-73
2022/06/07 02:34:26;;;;;;;3.80;3.40;;;14.30;99.90;;;;;;4971542;28;20227;-72
2022/06/07 02:36:55;;;;;;;5.85;3.47;;;14.20;99.90;;;;;;4972087;28;20227;-72
2022/06/07 02:39:21;;;;;;;9.60;3.67;;;14.00;99.90;;;;;;4971377;28;20279;-73
2022/06/07 02:41:49;;;;;;;7.40;3.40;;;13.90;99.90;;;;;;4971106;28;20660;-73
2022/06/07 02:44:15;;;;;;;7.10;3.50;;;13.80;99.90;;;;;;4970925;28;20205;-73
2022/06/07 02:46:40;;;;;;;5.22;3.50;;;13.80;99.90;;;;;;4971617;28;20515;-73
2022/06/07 02:49:06;;;;;;;4.13;3.38;;;13.90;99.90;;;;;;4970953;28;20234;-73
2022/06/07 02:51:32;;;;;;;3.92;3.40;;;13.90;99.90;;;;;;4972162;28;20216;-73
2022/06/07 02:53:57;;;;;;;8.10;3.70;;;13.90;99.90;;;;;;4969971;28;20204;-73
2022/06/07 02:56:23;;;;;;;7.95;3.65;;;13.90;99.90;;;;;;4970971;28;20279;-73
2022/06/07 02:58:49;;;;;;;6.05;3.38;;;13.80;99.90;;;;;;4970913;28;20234;-73
2022/06/07 03:01:14;;;;;;;7.57;3.42;;;13.70;99.90;;;;;;4970846;28;20277;-73
2022/06/07 03:03:40;;;;;;;9.48;3.53;;;13.60;99.90;;;;;;4971143;28;20200;-72
2022/06/07 03:06:06;;;;;;;9.68;3.95;;;13.40;99.90;;;;;;4970681;28;20219;-73
2022/06/07 03:08:32;;;;;;;6.25;3.60;;;13.40;99.90;;;;;;4972182;28;20185;-73
2022/06/07 03:10:58;;;;;;;4.75;3.35;;;13.40;99.90;;;;;;4972669;28;20177;-73
2022/06/07 03:13:24;;;;;;;4.57;3.30;;;13.40;99.90;;;;;;4970958;28;20183;-72
2022/06/07 03:15:52;;;;;;;6.10;3.95;;;13.50;99.90;;;;;;4971435;28;20180;-72
2022/06/07 03:18:18;;;;;;;4.88;3.33;;;13.40;99.90;;;;;;4971273;28;20188;-72
2022/06/07 03:20:45;;;;;;;4.95;3.45;;;13.30;99.90;;;;;;4971745;28;20177;-72
2022/06/07 03:23:11;;;;;;;8.77;3.50;;;13.50;99.90;;;;;;4971341;28;20176;-72
2022/06/07 03:25:37;;;;;;;6.70;3.60;;;13.50;99.90;;;;;;4970433;28;20312;-72
2022/06/07 03:28:03;;;;;;;3.80;3.50;;;13.60;99.90;;;;;;4970537;28;20177;-72
2022/06/07 03:30:29;;;;;;;3.70;3.50;;;13.60;99.90;;;;;;4970570;28;20177;-72
2022/06/07 03:32:54;;;;;;;5.68;3.42;;;13.50;99.90;;;;;;4970708;28;20183;-72
2022/06/07 03:35:20;;;;;;;4.25;3.22;;;13.50;99.90;;;;;;4970706;28;20208;-72
2022/06/07 03:37:46;;;;;;;3.70;3.20;;;13.50;99.90;;;;;;4971861;28;20645;-72
2022/06/07 03:40:14;;;;;;;5.07;3.17;;;13.60;99.90;;;;;;4970674;28;20219;-72
2022/06/07 03:42:40;;;;;;;4.25;3.17;;;13.70;99.90;;;;;;4971517;28;20575;-72
2022/06/07 03:45:06;;;;;;;5.65;3.00;;;13.70;99.90;;;;;;4971428;28;20310;-72
2022/06/07 03:47:34;;;;;;;3.45;2.88;;;13.80;99.90;;;;;;4971763;28;20182;-72
2022/06/07 03:49:59;;;;;;;3.38;3.05;;;13.90;99.90;;;;;;4971534;28;20177;-73
2022/06/07 03:52:25;;;;;;;4.15;3.20;;;13.90;99.90;;;;;;4970506;28;20647;-73
2022/06/07 03:54:50;;;;;;;5.05;3.40;;;14.00;99.90;;;;;;4970331;28;20287;-72
2022/06/07 03:57:16;;;;;;;3.85;3.28;;;14.00;99.90;;;;;;4971036;28;20245;-72
2022/06/07 03:59:43;;;;;;;8.27;3.75;;;14.20;99.90;;;;;;4970156;28;20188;-72
2022/06/07 04:02:09;;;;;;;7.30;3.25;;;14.20;99.90;;;;;;4970437;28;20185;-72
2022/06/07 04:04:35;;;;;;;4.72;2.83;;;14.40;99.90;;;;;;4971931;28;20303;-72
2022/06/07 04:09:46;;;;;;;3.20;2.90;;;14.70;99.90;;;;;;4975141;28;20215;-72
2022/06/07 04:12:15;;;;;;;5.00;3.28;;;14.80;99.90;;;;;;4974774;28;20177;-72
2022/06/07 04:14:41;;;;;;;6.28;3.42;;;14.90;99.90;;;;;;4973318;28;20219;-72
2022/06/07 04:17:08;;;;;;;8.50;3.47;;;14.90;99.90;;;;;;4973535;28;20264;-72
2022/06/07 04:19:35;;;;;;;5.78;3.15;;;15.00;99.90;;;;;;4973130;28;20208;-72
2022/06/07 04:22:01;;;;;;;8.38;3.33;;;15.10;99.90;;;;;;4973205;28;20183;-73
2022/06/07 04:24:27;;;;;;;6.38;3.47;;;15.20;99.90;;;;;;4973355;28;20201;-73
2022/06/07 04:26:53;;;;;;;6.88;3.30;;;15.30;99.90;;;;;;4973687;28;20181;-73
2022/06/07 04:29:18;;;;;;;7.07;3.03;;;15.40;99.90;;;;;;4974598;28;20223;-73
2022/06/07 04:31:44;;;;;;;7.45;3.33;;;15.50;99.90;;;;;;4974008;28;20177;-73
2022/06/07 04:34:10;;;;;;;3.58;3.20;;;15.60;99.90;;;;;;4974338;28;20196;-73
2022/06/07 04:36:36;;;;;;;8.05;3.90;;;15.60;99.90;;;;;;4974455;28;20185;-73
2022/06/07 04:39:04;;;;;;;4.85;3.70;;;15.60;99.90;;;;;;4973753;28;20177;-73
2022/06/07 04:41:30;;;;;;;9.88;3.75;;;15.60;99.90;;;;;;4973288;28;20181;-73
2022/06/07 04:43:56;;;;;;;4.22;3.88;;;15.70;99.90;;;;;;4973960;28;20201;-72
2022/06/07 04:46:23;;;;;;;7.13;3.60;;;15.80;99.90;;;;;;4973959;28;20330;-72
2022/06/07 04:48:50;;;;;;;4.03;3.28;;;15.90;99.90;;;;;;4972672;28;20184;-72
2022/06/07 04:51:19;;;;;;;8.57;4.10;;;16.10;99.90;;;;;;4973023;28;20189;-72
2022/06/07 04:53:44;;;;;;;7.47;3.90;;;16.10;99.90;;;;;;4972676;28;20197;-73
2022/06/07 04:56:17;;;;;;;5.28;3.58;;;16.10;99.90;;;;;;4972988;28;20185;-73
2022/06/07 04:58:44;;;;;;;5.70;4.00;;;16.10;99.90;;;;;;4972755;28;20177;-73
2022/06/07 05:01:14;;;;;;;5.50;3.45;;;16.20;99.90;;;;;;4972694;28;20203;-73
2022/06/07 05:03:40;;;;;;;4.00;3.67;;;16.20;99.90;;;;;;4972797;28;20205;-73
2022/06/07 05:06:36;;;;;;;7.97;3.90;;;16.30;99.90;;;;;;4974005;28;20617;-74
2022/06/07 05:09:09;;;;;;;4.95;3.88;;;16.40;99.90;;;;;;4962065;28;20212;-74
2022/06/07 05:11:35;;;;;;;7.35;3.88;;;16.60;99.90;;;;;;4973366;28;20177;-74
2022/06/07 05:14:05;;;;;;;5.03;3.95;;;16.70;99.90;;;;;;4973537;28;20193;-73
2022/06/07 05:16:32;;;;;;;6.88;4.13;;;16.60;99.90;;;;;;4971661;28;20169;-74
2022/06/07 05:18:57;;;;;;;4.50;4.10;;;16.70;99.90;;;;;;4972397;28;20197;-74
2022/06/07 05:21:25;;;;;;;5.32;4.05;;;16.50;99.90;;;;;;4973541;28;20240;-74
2022/06/07 05:23:52;;;;;;;7.40;4.55;;;16.20;99.90;;;;;;4972199;28;20211;-74
2022/06/07 05:26:42;;;;;;;7.20;4.68;;;16.30;99.90;;;;;;4972370;28;20204;-74
2022/06/07 05:29:39;;;;;;;5.55;4.95;;;16.50;99.90;;;;;;4972344;28;20701;-74
2022/06/07 05:32:05;;;;;;;4.95;4.53;;;16.80;99.90;;;;;;4962364;28;20229;-74
2022/06/07 05:34:30;;;;;;;6.45;4.30;;;17.20;99.90;;;;;;4972585;28;20228;-73
2022/06/07 05:36:56;;;;;;;4.07;3.42;;;17.40;99.90;;;;;;4972034;28;20559;-73
2022/06/07 05:39:25;;;;;;;6.75;3.90;;;17.60;99.90;;;;;;4973115;28;20183;-73
2022/06/07 05:41:52;;;;;;;4.43;3.78;;;17.80;99.90;;;;;;4973482;28;20177;-74
2022/06/07 05:44:18;;;;;;;5.00;3.33;;;17.90;99.90;;;;;;4971767;28;20230;-74
2022/06/07 05:50:09;;;;;;;6.18;3.70;;;17.80;99.90;;;;;;4973357;28;20181;-74
2022/06/07 05:52:40;;;;;;;4.47;3.83;;;17.70;99.90;;;;;;4972962;28;20165;-73
2022/06/07 05:55:07;;;;;;;5.28;3.55;;;17.60;99.90;;;;;;4972204;28;20292;-73
2022/06/07 05:58:15;;;;;;;4.82;3.30;;;17.40;99.90;;;;;;4971945;28;20185;-73
2022/06/07 06:00:42;;;;;;;12.50;3.78;;;17.60;99.90;;;;;;4973818;28;20176;-73
2022/06/07 06:03:40;;;;;;;3.35;3.10;;;17.70;99.90;;;;;;4971962;28;20648;-73
2022/06/07 06:06:10;;;;;;;5.22;3.33;;;17.70;99.90;;;;;;4972731;28;20296;-73
2022/06/07 06:14:49;;;;;;;3.50;3.20;;;17.30;99.90;;;;;;4973050;28;20262;-73
2022/06/07 06:17:15;;;;;;;6.65;3.45;;;17.20;99.90;;;;;;4971633;28;20644;-74
2022/06/07 06:20:17;;;;;;;3.42;3.13;;;17.20;99.90;;;;;;4971577;28;20204;-74
2022/06/07 06:23:20;;;;;;;5.20;3.38;;;17.20;99.90;;;;;;4971735;28;20169;-74
2022/06/07 06:25:49;;;;;;;5.90;3.03;;;17.50;99.90;;;;;;4971532;28;20197;-76
2022/06/07 06:28:50;;;;;;;6.18;2.75;;;18.10;99.90;;;;;;4985078;28;20185;-73
2022/06/07 06:31:16;;;;;;;22.90;4.68;;;19.10;99.90;;;;;;4992105;28;20200;-73
2022/06/07 06:33:45;;;;;;;18.27;4.00;;;20.50;99.90;;;;;;4992378;28;20200;-74
2022/06/07 06:36:13;;;;;;;3.05;2.80;;;21.50;98.80;;;;;;4991937;28;20593;-74
2022/06/07 06:39:08;;;;;;;5.05;2.70;;;22.30;94.70;;;;;;4990711;28;20184;-74
2022/06/07 06:41:34;;;;;;;2.97;2.60;;;22.80;92.00;;;;;;4991883;28;20199;-82
2022/06/07 06:44:01;;;;;;;2.60;2.40;;;23.10;90.20;;;;;;4991755;28;20275;-74
2022/06/07 06:46:47;;;;;;;5.20;2.70;;;23.10;87.70;;;;;;4992038;28;20307;-73
2022/06/07 06:49:13;;;;;;;7.82;2.55;;;22.80;87.60;;;;;;4990922;28;20168;-74
2022/06/07 06:51:41;;;;;;;4.75;2.40;;;22.50;88.00;;;;;;4992248;28;20648;-74
2022/06/07 06:54:09;;;;;;;3.40;2.28;;;22.10;88.70;;;;;;4991924;28;20682;-73
2022/06/07 06:56:36;;;;;;;3.83;2.17;;;21.60;88.90;;;;;;4990848;28;20648;-74
2022/06/07 06:59:02;;;;;;;5.55;2.72;;;20.90;90.20;;;;;;4991373;28;20215;-74
2022/06/07 07:01:31;;;;;;;4.22;2.55;;;20.50;92.20;;;;;;4992074;28;20181;-74
2022/06/07 07:07:18;;;;;;;5.63;2.30;;;20.00;95.30;;;;;;4991657;28;20233;-73
2022/06/07 07:09:44;;;;;;;4.93;2.30;;;19.70;94.90;;;;;;4990548;28;20200;-73
2022/06/07 07:12:10;;;;;;;2.17;2.08;;;19.70;96.90;;;;;;4990367;28;20176;-74
2022/06/07 07:14:35;;;;;;;3.40;2.60;;;19.60;97.30;;;;;;4991262;28;20592;-73
2022/06/07 07:17:01;;;;;;;3.75;2.20;;;19.60;97.70;;;;;;4990382;28;20195;-73
2022/06/07 07:19:27;;;;;;;10.07;2.50;;;19.70;97.90;;;;;;4990087;28;20294;-73
2022/06/07 07:21:52;;;;;;;6.32;2.10;;;19.80;95.80;;;;;;4990053;28;20180;-74
2022/06/07 07:24:23;;;;;;;3.15;1.75;;;19.90;94.90;;;;;;4989891;28;20246;-73
2022/06/07 07:30:12;;;;;;;5.13;1.70;;;19.90;93.20;;;;;;4991211;28;20167;-75
2022/06/07 07:32:37;;;;;;;3.33;2.05;;;19.90;92.00;;;;;;4990259;28;20184;-73
2022/06/07 07:35:03;;;;;;;3.58;1.40;;;20.00;91.70;;;;;;4990011;28;20227;-73
2022/06/07 07:37:29;;;;;;;4.95;1.40;;;19.90;90.60;;;;;;4990074;28;20234;-73
2022/06/07 07:39:55;;;;;;;2.88;1.27;;;20.00;91.30;;;;;;4993269;28;20173;-72
2022/06/07 07:42:32;;;;;;;2.63;1.40;;;20.10;91.00;;;;;;4993309;28;20693;-74
2022/06/07 07:44:57;;;;;;;3.08;1.50;;;20.10;90.40;;;;;;4993192;28;20208;-73
2022/06/07 07:47:23;;;;;;;3.38;1.52;;;20.10;89.20;;;;;;4993511;28;20191;-73
2022/06/07 07:49:48;;;;;;;1.85;1.40;;;20.10;90.60;;;;;;4993123;28;20169;-73
2022/06/07 07:52:18;;;;;;;4.82;1.30;;;20.00;90.10;;;;;;4994615;28;20221;-71
2022/06/07 07:55:07;;;;;;;6.70;1.42;;;20.00;90.00;;;;;;4994333;28;20196;-71
2022/06/07 07:57:33;;;;;;;7.93;1.30;;;20.10;89.10;;;;;;4993152;28;20273;-72
2022/06/07 07:59:58;;;;;;;3.75;1.20;;;20.20;86.70;;;;;;4993334;28;20643;-71
2022/06/07 08:02:25;;;;;;;2.00;1.20;;;20.40;84.20;;;;;;4992912;28;20210;-71
2022/06/07 08:04:51;;;;;;;1.25;1.15;;;20.50;84.70;;;;;;4992831;28;20220;-72
2022/06/07 08:07:16;;;;;;;2.00;1.35;;;20.60;83.20;;;;;;4992937;28;20187;-72
2022/06/07 08:09:43;;;;;;;3.55;1.40;;;20.70;84.70;;;;;;4992922;28;20241;-72
2022/06/07 08:12:09;;;;;;;3.38;1.40;;;20.90;84.40;;;;;;4992925;28;20182;-73
2022/06/07 08:14:36;;;;;;;2.88;1.20;;;20.90;82.30;;;;;;4994025;28;20192;-73
2022/06/07 08:17:03;;;;;;;2.10;1.23;;;21.00;81.60;;;;;;4992819;28;20187;-74
2022/06/07 08:19:30;;;;;;;3.08;1.90;;;21.00;77.00;;;;;;4993784;28;20195;-74
2022/06/07 08:21:56;;;;;;;3.78;1.27;;;21.00;77.60;;;;;;4992761;28;20180;-73
2022/06/07 08:24:21;;;;;;;1.25;1.10;;;21.10;77.10;;;;;;4992439;28;20200;-73
2022/06/07 08:26:49;;;;;;;1.65;0.80;;;21.10;74.50;;;;;;4993846;28;20179;-72
2022/06/07 08:29:16;;;;;;;3.03;1.25;;;21.30;75.90;;;;;;4993854;28;20218;-72
2022/06/07 08:31:42;;;;;;;1.33;1.08;;;21.50;75.40;;;;;;5001441;28;20290;-72
2022/06/07 08:40:31;;;;;;;74.32;6.45;;;22.70;71.70;;;;;;5097018;28;20194;-73
2022/06/07 08:42:58;;;;;;;6.10;1.30;;;23.00;68.60;;;;;;5096083;28;20169;-74
2022/06/07 08:45:35;;;;;;;11.05;1.75;;;23.10;68.70;;;;;;5095060;28;20234;-73
2022/06/07 08:48:25;;;;;;;3.28;1.33;;;23.30;69.90;;;;;;5096354;28;20232;-74
2022/06/07 08:51:03;;;;;;;3.38;1.20;;;23.40;67.80;;;;;;5094699;28;20200;-74
2022/06/07 08:53:34;;;;;;;2.75;1.00;;;23.20;63.00;;;;;;5096396;28;20161;-74
2022/06/07 08:56:55;;;;;;;3.08;1.10;;;23.20;66.80;;;;;;5096056;28;20172;-74
2022/06/07 08:59:21;;;;;;;1.15;1.00;;;22.60;63.40;;;;;;5095298;28;20173;-73
2022/06/07 09:02:21;;;;;;;1.48;1.00;;;22.30;65.50;;;;;;5096194;28;20173;-73
2022/06/07 09:04:47;;;;;;;3.22;1.02;;;22.00;66.00;;;;;;5095393;28;20212;-73
2022/06/07 09:07:16;;;;;;;1.90;1.00;;;21.70;62.90;;;;;;5095160;28;20226;-74
2022/06/07 09:12:35;;;;;;;3.60;0.80;;;21.80;67.90;;;;;;4974073;28;20176;-72
2022/06/07 09:15:03;;;;;;;2.33;0.98;;;21.90;66.70;;;;;;4990067;28;20207;-72
2022/06/07 09:17:45;;;;;;;2.60;0.90;;;21.90;67.00;;;;;;4992433;28;20188;-72
2022/06/07 09:20:22;;;;;;;1.65;0.90;;;22.20;68.70;;;;;;5001757;28;20192;-73
2022/06/07 09:22:58;;;;;;;3.10;1.08;;;22.40;66.10;;;;;;5095234;28;20165;-72
2022/06/07 09:25:29;;;;;;;1.58;1.00;;;22.60;64.60;;;;;;5094598;28;20193;-72
2022/06/07 09:27:57;;;;;;;1.58;1.30;;;22.80;63.00;;;;;;5094223;28;20198;-72
2022/06/07 09:30:25;;;;;;;3.25;1.20;;;23.10;63.50;;;;;;5095392;28;20250;-72
2022/06/07 09:32:51;;;;;;;2.97;1.02;;;23.40;62.50;;;;;;5094491;28;20260;-72
2022/06/07 09:35:24;;;;;;;1.65;1.05;;;23.60;59.90;;;;;;5084873;28;20284;-73
2022/06/07 09:38:00;;;;;;;2.35;1.13;;;23.40;61.80;;;;;;4992135;28;20176;-72
2022/06/07 09:41:36;;;;;;;2.80;1.30;;;23.40;62.50;;;;;;5009616;28;20650;-73
2022/06/07 09:44:25;;;;;;;6.65;2.60;;;23.30;61.60;;;;;;5075368;28;20197;-72
2022/06/07 09:47:12;;;;;;;3.58;2.40;;;22.90;60.90;;;;;;5093082;28;20187;-72
2022/06/07 09:49:38;;;;;;;6.07;5.57;;;22.40;59.90;;;;;;5094513;28;20223;-72
2022/06/07 09:52:21;;;;;;;3.15;1.60;;;22.70;60.40;;;;;;5095288;28;20197;-72
2022/06/07 09:58:45;;;;;;;1.15;1.05;;;22.80;57.90;;;;;;4973270;28;20160;-72
2022/06/07 10:01:24;;;;;;;26.42;2.80;;;22.50;58.00;;;;;;4981309;28;20279;-72
2022/06/07 10:07:52;;;;;;;2.50;1.27;;;23.40;58.70;;;;;;4993131;28;20233;-73
2022/06/07 10:10:55;;;;;;;2.42;1.90;;;24.10;55.40;;;;;;4992149;28;20192;-73
2022/06/07 10:16:54;;;;;;;4.80;1.60;;;24.40;52.50;;;;;;4993154;28;20187;-72
2022/06/07 10:20:03;;;;;;;1.45;1.35;;;23.80;53.40;;;;;;4991220;28;20203;-72
2022/06/07 10:22:40;;;;;;;12.52;11.35;;;23.80;53.00;;;;;;5083312;28;20173;-72
2022/06/07 10:25:23;;;;;;;5.07;1.40;;;23.70;52.10;;;;;;5094413;28;20196;-72
2022/06/07 10:28:00;;;;;;;2.60;1.45;;;23.60;51.00;;;;;;5093083;28;20165;-71
2022/06/07 10:30:40;;;;;;;1.10;1.00;;;23.50;50.00;;;;;;5093079;28;20192;-72
2022/06/07 10:33:06;;;;;;;2.53;1.00;;;23.70;51.90;;;;;;5092998;28;20168;-72
2022/06/07 10:35:50;;;;;;;2.90;1.70;;;23.90;50.90;;;;;;5092050;28;20193;-73
2022/06/07 10:41:57;;;;;;;3.33;1.23;;;23.70;49.90;;;;;;5041789;28;20234;-72
2022/06/07 10:54:13;;;;;;;1.42;0.90;;;23.90;51.80;;;;;;4992139;28;20204;-72
2022/06/07 10:56:45;;;;;;;1.00;0.90;;;24.20;51.30;;;;;;4990443;28;20172;-73
2022/06/07 10:59:31;;;;;;;4.13;1.08;;;24.30;52.50;;;;;;4990374;28;20169;-73
2022/06/07 11:11:08;;;;;;;1.42;0.90;;;23.80;53.50;;;;;;4972066;28;20215;-75
2022/06/07 11:17:12;;;;;;;1.10;1.10;;;24.20;53.70;;;;;;5040187;28;20229;-75
2022/06/07 11:19:38;;;;;;;1.83;1.00;;;24.40;51.50;;;;;;5093767;28;20644;-75
2022/06/07 11:22:11;;;;;;;1.02;0.93;;;24.40;52.30;;;;;;5031395;28;20187;-75
2022/06/07 11:25:01;;;;;;;2.72;0.75;;;24.40;51.20;;;;;;4991481;28;20204;-73
2022/06/07 11:27:30;;;;;;;1.13;1.05;;;24.70;52.50;;;;;;5068474;28;20157;-74
2022/06/07 11:33:57;;;;;;;2.88;1.27;;;25.20;52.20;;;;;;4972005;28;20168;-74
2022/06/07 11:36:35;;;;;;;1.73;0.98;;;25.60;50.00;;;;;;4972122;28;20165;-73
2022/06/07 11:39:29;;;;;;;1.58;0.82;;;25.70;49.50;;;;;;4971669;28;20162;-73
2022/06/07 11:42:07;;;;;;;3.75;1.20;;;25.30;49.80;;;;;;4990382;28;20195;-73
2022/06/07 11:44:42;;;;;;;1.80;0.90;;;24.70;50.70;;;;;;4990412;28;20200;-74
2022/06/07 11:47:08;;;;;;;2.10;1.20;;;24.40;53.10;;;;;;5048758;28;20180;-74
2022/06/07 11:49:46;;;;;;;1.33;1.05;;;24.20;53.30;;;;;;5092018;28;20173;-74
2022/06/07 11:52:11;;;;;;;2.03;1.38;;;24.20;52.90;;;;;;5033533;28;20175;-73
2022/06/07 11:54:48;;;;;;;2.53;1.10;;;24.10;52.40;;;;;;4989629;28;20196;-73
2022/06/07 12:00:45;;;;;;;3.40;1.00;;;23.90;52.70;;;;;;4991192;28;20680;-73
2022/06/07 12:03:34;;;;;;;5.25;1.65;;;24.20;53.70;;;;;;4990253;28;20686;-73
2022/06/07 12:09:35;;;;;;;3.17;1.17;;;24.70;50.50;;;;;;4991052;28;20164;-73
2022/06/07 12:19:26;;;;;;;1.75;1.00;;;24.30;50.70;;;;;;4990927;28;20338;-74
2022/06/07 12:22:04;;;;;;;1.75;1.10;;;24.30;50.30;;;;;;4989484;28;20196;-72
2022/06/07 12:24:42;;;;;;;5.53;1.15;;;24.40;50.70;;;;;;4989335;28;20204;-73
2022/06/07 12:27:35;;;;;;;5.22;1.10;;;24.40;49.00;;;;;;4992624;28;20225;-72
2022/06/07 12:30:22;;;;;;;5.88;0.80;;;24.40;51.10;;;;;;4996590;28;20218;-72
2022/06/07 12:32:51;;;;;;;1.65;1.13;;;24.50;49.60;;;;;;4993507;28;20222;-72
2022/06/07 12:35:26;;;;;;;1.38;1.00;;;24.50;49.00;;;;;;4992823;28;20204;-73
2022/06/07 12:41:19;;;;;;;0.93;0.90;;;24.70;50.30;;;;;;4993906;28;20184;-72
2022/06/07 12:43:50;;;;;;;0.88;0.88;;;24.70;46.90;;;;;;4992540;28;20192;-73
2022/06/07 12:46:41;;;;;;;1.98;1.02;;;24.70;47.50;;;;;;4992393;28;20302;-73
2022/06/07 12:49:19;;;;;;;0.82;0.82;;;24.50;45.60;;;;;;4993799;28;20181;-73
2022/06/07 12:51:55;;;;;;;5.97;1.20;;;24.40;46.30;;;;;;4992285;28;20203;-73
2022/06/07 12:54:22;;;;;;;10.88;1.88;;;24.20;45.30;;;;;;4993696;28;20604;-72
2022/06/07 12:56:53;;;;;;;5.05;1.05;;;24.10;47.60;;;;;;4993362;28;20196;-73
2022/06/07 12:59:35;;;;;;;4.78;1.45;;;24.10;45.50;;;;;;4992287;28;20173;-73
2022/06/07 13:02:11;;;;;;;3.22;1.00;;;24.20;46.00;;;;;;4992379;28;20183;-73
2022/06/07 13:08:21;;;;;;;1.40;0.90;;;24.70;47.10;;;;;;4993557;28;20519;-73
2022/06/07 13:10:47;;;;;;;3.20;0.95;;;24.80;46.40;;;;;;4991933;28;20242;-73
2022/06/07 13:13:24;;;;;;;3.78;1.00;;;24.30;45.90;;;;;;4993175;28;20176;-73
2022/06/07 13:16:31;;;;;;;1.80;0.80;;;23.90;48.90;;;;;;4991889;28;20180;-72
2022/06/07 13:19:08;;;;;;;1.20;0.80;;;23.80;48.80;;;;;;4993024;28;20186;-73
2022/06/07 13:21:37;;;;;;;0.85;0.73;;;23.90;48.40;;;;;;5075710;28;20192;-72
2022/06/07 13:24:03;;;;;;;6.18;1.10;;;23.90;46.90;;;;;;5094373;28;20200;-72
2022/06/07 13:26:33;;;;;;;0.93;0.70;;;23.90;50.70;;;;;;5094225;28;20196;-72
2022/06/07 13:29:15;;;;;;;2.90;0.90;;;23.90;48.30;;;;;;5094430;28;20177;-72
2022/06/07 13:31:49;;;;;;;2.50;0.93;;;23.70;47.90;;;;;;5095222;28;20239;-72
2022/06/07 13:34:20;;;;;;;5.95;1.27;;;23.70;48.40;;;;;;5095487;28;20192;-72
2022/06/07 13:37:12;;;;;;;7.75;1.10;;;23.60;48.40;;;;;;5093387;28;20187;-72
2022/06/07 13:40:22;;;;;;;1.00;0.73;;;23.60;49.40;;;;;;5094104;28;20172;-72
2022/06/07 13:43:10;;;;;;;10.75;1.15;;;23.40;47.70;;;;;;5094095;28;20169;-72
2022/06/07 13:45:44;;;;;;;1.15;0.88;;;23.20;48.50;;;;;;5094095;28;20296;-72
2022/06/07 13:48:15;;;;;;;0.95;0.80;;;23.10;48.90;;;;;;5094960;28;20165;-72
2022/06/07 13:53:53;;;;;;;2.85;1.08;;;23.10;50.10;;;;;;5095242;28;20191;-72
2022/06/07 13:56:22;;;;;;;2.35;0.73;;;23.10;49.70;;;;;;5093685;28;20206;-73
2022/06/07 13:58:56;;;;;;;0.73;0.60;;;23.20;49.50;;;;;;5094058;28;20203;-72
2022/06/07 14:01:35;;;;;;;1.77;0.90;;;23.30;50.60;;;;;;5093601;28;20172;-72
2022/06/07 14:07:23;;;;;;;0.45;0.45;;;24.00;47.60;;;;;;5095125;28;20184;-73
2022/06/07 14:09:56;;;;;;;1.48;0.75;;;24.50;48.80;;;;;;5091984;28;20177;-74
2022/06/07 14:12:22;;;;;;;8.95;1.05;;;24.80;46.90;;;;;;5093423;28;20260;-74
2022/06/07 14:14:48;;;;;;;3.33;0.60;;;25.10;46.70;;;;;;5094480;28;20267;-74
2022/06/07 14:17:22;;;;;;;0.70;0.70;;;25.30;47.00;;;;;;5093347;28;20181;-74
2022/06/07 14:19:53;;;;;;;0.63;0.57;;;25.30;45.70;;;;;;5094602;28;20157;-74
2022/06/07 14:25:41;;;;;;;3.92;0.90;;;25.10;46.80;;;;;;5094460;28;20204;-75
2022/06/07 14:28:29;;;;;;;1.45;0.73;;;25.00;47.40;;;;;;5093142;28;20169;-75
2022/06/07 14:31:01;;;;;;;1.63;0.77;;;24.90;47.60;;;;;;5095237;28;20189;-74
2022/06/07 14:33:40;;;;;;;1.23;0.80;;;24.80;48.00;;;;;;5093714;28;20165;-74
2022/06/07 14:36:18;;;;;;;6.22;0.90;;;24.50;47.10;;;;;;5093277;28;20573;-73
2022/06/07 14:38:46;;;;;;;3.80;1.42;;;24.20;47.30;;;;;;5094195;28;20168;-73
2022/06/07 14:44:34;;;;;;;3.78;1.08;;;24.00;49.70;;;;;;5094126;28;20215;-74
2022/06/07 14:47:01;;;;;;;2.50;0.70;;;24.20;49.20;;;;;;5092790;28;20221;-74
2022/06/07 14:49:34;;;;;;;3.63;0.88;;;24.40;48.80;;;;;;5091790;28;20172;-74
2022/06/07 14:52:01;;;;;;;2.22;0.93;;;24.60;48.40;;;;;;5094110;28;20179;-74
2022/06/07 14:54:33;;;;;;;3.00;0.90;;;24.60;48.30;;;;;;5092766;28;20552;-73
2022/06/07 14:56:59;;;;;;;0.80;0.80;;;24.50;49.50;;;;;;5092549;28;20169;-73